Time;durP1;ratioP1;P1;durP2;ratioP2;P2;SDS_P1;SDS_P2;PMS_P1;PMS_P2;Temp;Humidity;BMP_temperature;BMP_pressure;BME280_temperature;BME280_humidity;BME280_pressure;Samples;Min_cycle;Max_cycle;Signal;HPM_P1;HPM_P2
2023/02/26 00:01:38;;;;;;;8.88;2.03;;;0.30;99.90;;;;;;5009719;28;20041;-72
2023/02/26 00:04:04;;;;;;;3.55;1.65;;;0.30;99.90;;;;;;5044877;28;20556;-72
2023/02/26 00:06:34;;;;;;;5.00;1.85;;;0.30;99.90;;;;;;5020776;28;20049;-72
2023/02/26 00:09:00;;;;;;;9.10;1.60;;;0.30;99.90;;;;;;5019181;28;20041;-72
2023/02/26 00:11:26;;;;;;;10.82;1.73;;;0.20;99.90;;;;;;5011233;28;20041;-72
2023/02/26 00:13:52;;;;;;;4.03;1.10;;;0.30;99.90;;;;;;5011863;28;20046;-72
2023/02/26 00:16:24;;;;;;;5.57;1.40;;;0.40;99.90;;;;;;5002673;28;20045;-72
2023/02/26 00:18:50;;;;;;;10.40;1.65;;;0.40;99.90;;;;;;4999313;28;20495;-72
2023/02/26 00:21:17;;;;;;;4.90;1.20;;;0.20;99.90;;;;;;5005660;28;20141;-72
2023/02/26 00:23:43;;;;;;;3.65;1.30;;;0.30;99.90;;;;;;5000462;28;20045;-72
2023/02/26 00:26:09;;;;;;;7.82;1.60;;;0.30;99.90;;;;;;5022106;28;20045;-72
2023/02/26 00:28:35;;;;;;;9.30;2.20;;;0.30;99.90;;;;;;4997450;28;20486;-72
2023/02/26 00:31:01;;;;;;;6.47;1.55;;;0.10;99.90;;;;;;4978449;28;20100;-72
2023/02/26 00:33:27;;;;;;;5.88;1.40;;;0.20;99.90;;;;;;5014603;28;20056;-72
2023/02/26 00:36:14;;;;;;;5.97;1.50;;;0.30;99.90;;;;;;5026656;28;20457;-72
2023/02/26 00:38:40;;;;;;;5.57;1.40;;;0.10;99.90;;;;;;5003145;28;20061;-72
2023/02/26 00:41:07;;;;;;;9.25;1.23;;;0.10;99.90;;;;;;5021486;28;20053;-72
2023/02/26 00:43:34;;;;;;;5.50;1.52;;;0.10;99.90;;;;;;5007796;28;20046;-72
2023/02/26 00:46:20;;;;;;;5.57;1.20;;;0.00;99.90;;;;;;5003581;28;20106;-72
2023/02/26 00:49:17;;;;;;;4.93;1.20;;;0.10;99.90;;;;;;5038352;28;20458;-72
2023/02/26 00:51:57;;;;;;;5.78;1.27;;;0.00;99.90;;;;;;5015570;28;20537;-72
2023/02/26 00:54:27;;;;;;;4.38;1.30;;;-0.10;99.90;;;;;;5020542;28;20474;-72
2023/02/26 00:56:53;;;;;;;7.68;1.40;;;-0.10;99.90;;;;;;4995778;28;20065;-72
2023/02/26 00:59:19;;;;;;;6.38;2.28;;;-0.10;99.90;;;;;;5022120;28;20042;-72
2023/02/26 01:01:45;;;;;;;8.90;1.23;;;-0.10;99.90;;;;;;5008668;28;20042;-72
2023/02/26 01:04:11;;;;;;;6.70;1.25;;;-0.20;99.90;;;;;;5025441;28;20493;-72
2023/02/26 01:06:51;;;;;;;4.75;1.30;;;-0.10;99.90;;;;;;5011117;28;20084;-72
2023/02/26 01:09:26;;;;;;;5.88;1.55;;;0.00;99.90;;;;;;5015203;28;20041;-72
2023/02/26 01:11:52;;;;;;;9.52;1.88;;;0.10;99.90;;;;;;4983649;28;20061;-72
2023/02/26 01:14:18;;;;;;;7.45;1.55;;;0.20;99.90;;;;;;5002768;28;20107;-72
2023/02/26 01:16:52;;;;;;;4.55;1.20;;;0.20;99.90;;;;;;5015075;28;20130;-72
2023/02/26 01:19:57;;;;;;;4.80;1.48;;;0.10;99.90;;;;;;5027376;28;20052;-72
2023/02/26 01:22:34;;;;;;;3.10;0.98;;;0.10;99.90;;;;;;5022128;28;20042;-72
2023/02/26 01:25:12;;;;;;;8.52;1.20;;;-0.10;99.90;;;;;;5005022;28;20045;-72
2023/02/26 01:27:38;;;;;;;9.60;1.60;;;0.00;99.90;;;;;;5004242;28;20109;-72
2023/02/26 01:30:05;;;;;;;6.63;1.40;;;-0.10;99.90;;;;;;5010008;28;20050;-72
2023/02/26 01:33:18;;;;;;;7.25;1.67;;;-0.20;99.90;;;;;;4992899;28;20049;-72
2023/02/26 01:35:47;;;;;;;5.90;1.25;;;0.00;99.90;;;;;;4993462;28;20055;-72
2023/02/26 01:38:40;;;;;;;4.70;1.10;;;-0.10;99.90;;;;;;5023962;28;20053;-72
2023/02/26 01:41:43;;;;;;;5.85;1.58;;;-0.10;99.90;;;;;;5026628;28;20057;-73
2023/02/26 01:44:24;;;;;;;6.88;1.50;;;-0.30;99.90;;;;;;5022289;28;20116;-75
2023/02/26 01:47:02;;;;;;;9.02;1.75;;;-0.30;99.90;;;;;;5027629;28;20038;-75
2023/02/26 01:49:28;;;;;;;;;;;-0.20;99.90;;;;;;5023314;28;20041;-75
2023/02/26 01:51:56;;;;;;;5.20;1.23;;;-0.10;99.90;;;;;;5049074;28;19919;-72
2023/02/26 01:54:24;;;;;;;6.00;1.33;;;-0.10;99.90;;;;;;5006594;28;20045;-72
2023/02/26 01:57:03;;;;;;;5.93;1.25;;;0.00;99.90;;;;;;5014586;28;20406;-72
2023/02/26 01:59:30;;;;;;;3.80;1.15;;;0.20;99.90;;;;;;4998663;28;20050;-73
2023/02/26 02:01:56;;;;;;;5.28;1.65;;;0.30;99.90;;;;;;5001322;28;20049;-72
2023/02/26 02:04:22;;;;;;;5.90;1.70;;;0.30;99.90;;;;;;5012270;28;20515;-72
2023/02/26 02:06:48;;;;;;;7.88;1.25;;;0.30;99.90;;;;;;5009601;28;20060;-72
2023/02/26 02:09:13;;;;;;;7.85;1.73;;;0.30;99.90;;;;;;5025967;28;20045;-72
2023/02/26 02:11:52;;;;;;;5.50;1.42;;;0.20;99.90;;;;;;5027241;28;20493;-73
2023/02/26 02:14:44;;;;;;;5.40;1.77;;;0.20;99.90;;;;;;5009982;28;20045;-72
2023/02/26 02:17:23;;;;;;;6.30;1.30;;;0.20;99.90;;;;;;5007627;28;20052;-72
2023/02/26 02:20:26;;;;;;;6.45;1.95;;;0.20;99.90;;;;;;5036673;28;20046;-72
2023/02/26 02:22:58;;;;;;;5.57;1.52;;;0.20;99.90;;;;;;5005552;28;20146;-72
2023/02/26 02:26:05;;;;;;;4.40;1.45;;;0.10;99.90;;;;;;5027611;28;20787;-72
2023/02/26 02:28:58;;;;;;;5.95;1.83;;;0.20;99.90;;;;;;5014156;28;20398;-72
2023/02/26 02:31:30;;;;;;;5.03;1.67;;;0.30;99.90;;;;;;4988046;28;20088;-72
2023/02/26 02:34:00;;;;;;;6.25;1.98;;;0.40;99.90;;;;;;5030794;28;20048;-72
2023/02/26 02:36:52;;;;;;;5.25;1.30;;;0.30;99.90;;;;;;5014084;28;20532;-72
2023/02/26 02:39:22;;;;;;;3.13;1.38;;;0.30;99.90;;;;;;5016774;28;20045;-72
2023/02/26 02:41:57;;;;;;;8.50;1.60;;;0.30;99.90;;;;;;4992615;28;20038;-72
2023/02/26 02:44:25;;;;;;;3.08;1.00;;;0.30;99.90;;;;;;5009680;28;20046;-72
2023/02/26 02:46:52;;;;;;;3.55;1.05;;;0.30;99.90;;;;;;5029420;28;20053;-72
2023/02/26 02:49:36;;;;;;;5.20;1.30;;;0.30;99.90;;;;;;5035713;28;20111;-72
2023/02/26 02:52:17;;;;;;;3.90;1.30;;;0.30;99.90;;;;;;5014977;28;20075;-72
2023/02/26 02:54:49;;;;;;;5.15;1.40;;;0.30;99.90;;;;;;4997264;28;20135;-72
2023/02/26 02:57:21;;;;;;;5.45;1.30;;;0.30;99.90;;;;;;5047891;28;20068;-72
2023/02/26 02:59:54;;;;;;;6.60;1.20;;;0.40;99.90;;;;;;5005408;28;20135;-72
2023/02/26 03:02:32;;;;;;;4.70;1.20;;;0.30;99.90;;;;;;5009040;28;20037;-73
2023/02/26 03:04:58;;;;;;;3.40;1.20;;;0.40;99.90;;;;;;5013602;28;20200;-72
2023/02/26 03:07:24;;;;;;;4.10;1.13;;;0.40;99.90;;;;;;5018871;28;20127;-72
2023/02/26 03:09:50;;;;;;;4.47;1.10;;;0.20;99.90;;;;;;5008960;28;20050;-72
2023/02/26 03:12:16;;;;;;;4.05;1.30;;;0.40;99.90;;;;;;5015576;28;20872;-72
2023/02/26 03:14:41;;;;;;;9.23;1.55;;;0.40;99.90;;;;;;5008788;28;20045;-72
2023/02/26 03:17:31;;;;;;;7.82;1.30;;;0.40;99.90;;;;;;4992941;28;20046;-72
2023/02/26 03:20:18;;;;;;;5.50;1.25;;;0.40;99.90;;;;;;5006793;28;20037;-72
2023/02/26 03:23:02;;;;;;;3.45;1.10;;;0.40;99.90;;;;;;5028821;28;20042;-72
2023/02/26 03:25:42;;;;;;;3.22;1.00;;;0.30;99.90;;;;;;5019248;28;20038;-72
2023/02/26 03:28:34;;;;;;;5.03;1.17;;;0.40;99.90;;;;;;5024557;28;20056;-72
2023/02/26 03:31:16;;;;;;;2.08;0.70;;;0.30;99.90;;;;;;5022182;28;20748;-72
2023/02/26 03:34:05;;;;;;;8.70;1.58;;;0.30;99.90;;;;;;5019071;28;20050;-75
2023/02/26 03:36:41;;;;;;;3.15;0.90;;;0.50;99.90;;;;;;5025333;28;20064;-72
2023/02/26 03:39:09;;;;;;;4.20;1.15;;;0.40;99.90;;;;;;5009379;28;20037;-72
2023/02/26 03:41:39;;;;;;;3.08;0.88;;;0.40;99.90;;;;;;5024025;28;20047;-72
2023/02/26 03:44:08;;;;;;;4.07;1.10;;;0.30;99.90;;;;;;5023213;28;20048;-72
2023/02/26 03:46:38;;;;;;;6.47;1.13;;;0.40;99.90;;;;;;5026129;28;20065;-72
2023/02/26 03:49:15;;;;;;;4.53;1.00;;;0.40;99.90;;;;;;5024568;28;20069;-72
2023/02/26 03:51:42;;;;;;;4.32;1.17;;;0.50;99.90;;;;;;5025789;28;20363;-72
2023/02/26 03:54:14;;;;;;;3.90;1.20;;;0.50;99.90;;;;;;5020507;28;20061;-72
2023/02/26 03:56:44;;;;;;;3.58;1.02;;;0.50;99.90;;;;;;5022733;28;20080;-72
2023/02/26 03:59:10;;;;;;;4.15;1.60;;;0.50;99.90;;;;;;5000957;28;20116;-72
2023/02/26 04:01:43;;;;;;;7.07;1.23;;;0.40;99.90;;;;;;4998709;28;20045;-72
2023/02/26 04:04:24;;;;;;;4.43;1.33;;;0.40;99.90;;;;;;5023326;28;20061;-72
2023/02/26 04:06:52;;;;;;;4.85;1.10;;;0.40;99.90;;;;;;5003032;28;20123;-72
2023/02/26 04:09:19;;;;;;;5.20;1.38;;;0.40;99.90;;;;;;5026580;28;20128;-72
2023/02/26 04:11:45;;;;;;;3.20;1.20;;;0.40;99.90;;;;;;5016119;28;20057;-71
2023/02/26 04:14:11;;;;;;;3.58;0.90;;;0.40;99.90;;;;;;5017448;28;20045;-71
2023/02/26 04:16:36;;;;;;;5.20;1.17;;;0.50;99.90;;;;;;5020729;28;20831;-71
2023/02/26 04:19:02;;;;;;;4.05;1.30;;;0.40;99.90;;;;;;4985361;28;20045;-72
2023/02/26 04:21:28;;;;;;;3.50;1.50;;;0.50;99.90;;;;;;5020126;28;20635;-71
2023/02/26 04:23:53;;;;;;;4.13;1.17;;;0.50;99.90;;;;;;5024372;28;20045;-71
2023/02/26 04:26:19;;;;;;;6.28;1.10;;;0.50;99.90;;;;;;5006522;28;20121;-71
2023/02/26 04:28:45;;;;;;;5.80;1.30;;;0.40;99.90;;;;;;5000362;28;20061;-72
2023/02/26 04:31:11;;;;;;;4.13;1.10;;;0.40;99.90;;;;;;5005863;28;20515;-72
2023/02/26 04:33:36;;;;;;;5.35;1.10;;;0.50;99.90;;;;;;4983679;28;20049;-71
2023/02/26 04:36:03;;;;;;;7.50;1.40;;;0.40;99.90;;;;;;4992821;28;20049;-72
2023/02/26 04:38:29;;;;;;;4.82;1.10;;;0.50;99.90;;;;;;4996638;28;20471;-72
2023/02/26 04:40:56;;;;;;;4.68;1.23;;;0.50;99.90;;;;;;5016063;28;20053;-72
2023/02/26 04:43:23;;;;;;;4.05;1.17;;;0.50;99.90;;;;;;5022332;28;20088;-72
2023/02/26 04:45:49;;;;;;;5.85;1.80;;;0.50;99.90;;;;;;5008751;28;20041;-72
2023/02/26 04:48:16;;;;;;;3.40;1.45;;;0.60;99.90;;;;;;5006092;28;20532;-72
2023/02/26 04:50:42;;;;;;;4.45;1.00;;;0.50;99.90;;;;;;5019821;28;20444;-72
2023/02/26 04:53:07;;;;;;;5.07;1.17;;;0.50;99.90;;;;;;5008146;28;20356;-72
2023/02/26 04:55:34;;;;;;;9.27;1.35;;;0.50;99.90;;;;;;5054730;28;20061;-71
2023/02/26 04:58:00;;;;;;;4.78;0.95;;;0.40;99.90;;;;;;5024301;28;20374;-72
2023/02/26 05:00:25;;;;;;;2.38;1.00;;;0.50;99.90;;;;;;4982648;28;20044;-72
2023/02/26 05:02:51;;;;;;;2.65;0.80;;;0.50;99.90;;;;;;5042933;28;20048;-71
2023/02/26 05:05:17;;;;;;;4.70;1.27;;;0.50;99.90;;;;;;5011946;28;20138;-72
2023/02/26 05:07:43;;;;;;;6.05;1.10;;;0.50;99.90;;;;;;5020713;28;20050;-72
2023/02/26 05:10:09;;;;;;;4.75;1.10;;;0.50;99.90;;;;;;4993473;28;20394;-72
2023/02/26 05:12:35;;;;;;;5.07;1.30;;;0.50;99.90;;;;;;5010408;28;20049;-72
2023/02/26 05:15:00;;;;;;;2.88;1.02;;;0.50;99.90;;;;;;4993895;28;20045;-72
2023/02/26 05:17:26;;;;;;;6.38;1.17;;;0.50;99.90;;;;;;5024671;28;20045;-72
2023/02/26 05:19:53;;;;;;;5.22;1.00;;;0.40;99.90;;;;;;5020867;28;20060;-72
2023/02/26 05:22:19;;;;;;;10.05;2.38;;;0.50;99.90;;;;;;5015666;28;20076;-72
2023/02/26 05:24:45;;;;;;;2.95;1.30;;;0.40;99.90;;;;;;5013925;28;20073;-71
2023/02/26 05:27:11;;;;;;;6.57;1.65;;;0.40;99.90;;;;;;5016775;28;20547;-71
2023/02/26 05:29:36;;;;;;;5.63;1.40;;;0.30;99.90;;;;;;4978272;28;20065;-72
2023/02/26 05:32:02;;;;;;;5.20;1.70;;;0.30;99.90;;;;;;5010930;28;20116;-72
2023/02/26 05:34:28;;;;;;;8.35;1.60;;;0.30;99.90;;;;;;5004400;28;20049;-73
2023/02/26 05:36:54;;;;;;;5.20;1.95;;;0.30;99.90;;;;;;4991233;28;20112;-72
2023/02/26 05:39:19;;;;;;;4.70;1.40;;;0.20;99.90;;;;;;5023230;28;20336;-72
2023/02/26 05:41:45;;;;;;;6.95;2.35;;;0.20;99.90;;;;;;5020268;28;20124;-71
2023/02/26 05:44:11;;;;;;;3.85;1.50;;;0.20;99.90;;;;;;5025975;28;20069;-72
2023/02/26 05:46:37;;;;;;;7.30;1.70;;;0.20;99.90;;;;;;5017234;28;20084;-72
2023/02/26 05:49:03;;;;;;;4.95;1.23;;;0.10;99.90;;;;;;5002175;28;20773;-72
2023/02/26 05:51:29;;;;;;;8.00;1.90;;;0.10;99.90;;;;;;4999440;28;20077;-72
2023/02/26 05:53:54;;;;;;;5.85;1.58;;;0.20;99.90;;;;;;5011571;28;20037;-72
2023/02/26 05:56:20;;;;;;;4.50;1.48;;;0.00;99.90;;;;;;5004130;28;20406;-72
2023/02/26 05:58:46;;;;;;;8.48;2.10;;;0.00;99.90;;;;;;5024387;28;20129;-73
2023/02/26 06:01:12;;;;;;;8.02;2.30;;;0.00;99.90;;;;;;4998400;28;20140;-73
2023/02/26 06:03:42;;;;;;;3.55;1.50;;;-0.10;99.90;;;;;;5042645;28;20041;-73
2023/02/26 06:06:11;;;;;;;10.32;2.45;;;-0.10;99.90;;;;;;5018291;28;20037;-73
2023/02/26 06:08:37;;;;;;;6.28;1.77;;;-0.10;99.90;;;;;;5019716;28;20057;-72
2023/02/26 06:11:03;;;;;;;8.48;2.10;;;-0.10;99.90;;;;;;5027296;28;20081;-72
2023/02/26 06:13:31;;;;;;;3.22;1.50;;;-0.10;99.90;;;;;;5010386;28;20656;-72
2023/02/26 06:15:57;;;;;;;5.30;1.57;;;-0.10;99.90;;;;;;5022961;28;20527;-72
2023/02/26 06:18:24;;;;;;;4.88;1.40;;;-0.20;99.90;;;;;;5013738;28;20073;-72
2023/02/26 06:20:50;;;;;;;10.00;2.13;;;-0.20;99.90;;;;;;5002882;28;20060;-72
2023/02/26 06:23:16;;;;;;;5.32;1.52;;;-0.10;99.90;;;;;;5002793;28;20046;-72
2023/02/26 06:25:41;;;;;;;5.72;1.52;;;-0.20;99.90;;;;;;4996230;28;20046;-72
2023/02/26 06:28:07;;;;;;;5.88;1.63;;;-0.10;99.90;;;;;;5012618;28;20425;-72
2023/02/26 06:30:33;;;;;;;9.30;2.13;;;-0.20;99.90;;;;;;5028468;28;20052;-72
2023/02/26 06:33:00;;;;;;;5.70;1.63;;;-0.20;99.90;;;;;;5039714;28;20469;-72
2023/02/26 06:35:28;;;;;;;4.93;1.70;;;-0.20;99.90;;;;;;4993242;28;20060;-72
2023/02/26 06:37:56;;;;;;;5.15;2.42;;;-0.20;99.90;;;;;;5012708;28;20696;-72
2023/02/26 06:40:21;;;;;;;5.82;2.42;;;-0.20;99.90;;;;;;5030080;28;20033;-72
2023/02/26 06:42:47;;;;;;;5.10;1.70;;;-0.10;99.90;;;;;;5007410;28;20103;-72
2023/02/26 06:45:13;;;;;;;6.53;1.90;;;-0.20;99.90;;;;;;5029142;28;20060;-72
2023/02/26 06:47:39;;;;;;;4.45;1.58;;;-0.20;99.90;;;;;;5005745;28;20055;-72
2023/02/26 06:50:05;;;;;;;5.22;1.95;;;-0.20;99.90;;;;;;5019906;28;20160;-72
2023/02/26 06:52:31;;;;;;;7.35;1.25;;;-0.20;99.90;;;;;;5016219;28;20055;-72
2023/02/26 06:54:57;;;;;;;6.43;1.35;;;-0.20;99.90;;;;;;4983752;28;20045;-72
2023/02/26 06:57:23;;;;;;;10.43;1.77;;;-0.20;99.90;;;;;;5010261;28;20758;-72
2023/02/26 06:59:49;;;;;;;6.07;1.70;;;-0.20;99.90;;;;;;5009137;28;20052;-72
2023/02/26 07:02:19;;;;;;;6.05;1.73;;;-0.10;99.90;;;;;;5021668;28;20505;-71
2023/02/26 07:04:45;;;;;;;6.22;2.45;;;-0.10;99.90;;;;;;5002441;28;20085;-72
2023/02/26 07:07:11;;;;;;;5.07;1.73;;;-0.10;99.90;;;;;;4998498;28;20130;-71
2023/02/26 07:09:37;;;;;;;6.50;2.10;;;-0.10;99.90;;;;;;5003225;28;20049;-72
2023/02/26 07:12:03;;;;;;;6.97;1.55;;;0.00;99.90;;;;;;5003741;28;20136;-72
2023/02/26 07:14:28;;;;;;;2.58;1.50;;;0.00;99.90;;;;;;5017558;28;20128;-72
2023/02/26 07:16:54;;;;;;;6.32;1.40;;;0.00;99.90;;;;;;5001337;28;20125;-72
2023/02/26 07:19:20;;;;;;;2.78;1.27;;;0.00;99.90;;;;;;5042881;28;20111;-72
2023/02/26 07:21:47;;;;;;;3.38;1.23;;;0.00;99.90;;;;;;5013684;28;20789;-72
2023/02/26 07:24:13;;;;;;;4.03;1.02;;;0.10;99.90;;;;;;5000105;28;20052;-72
2023/02/26 07:26:39;;;;;;;3.17;1.33;;;0.10;99.90;;;;;;4990474;28;20371;-72
2023/02/26 07:29:04;;;;;;;4.68;1.20;;;0.20;99.90;;;;;;4986344;28;20116;-72
2023/02/26 07:31:32;;;;;;;6.55;2.03;;;0.20;99.90;;;;;;5023153;28;20045;-72
2023/02/26 07:33:57;;;;;;;6.43;1.38;;;0.20;99.90;;;;;;4988808;28;20045;-72
2023/02/26 07:36:23;;;;;;;4.22;1.08;;;0.30;99.90;;;;;;5012882;28;20143;-72
2023/02/26 07:38:49;;;;;;;6.03;1.50;;;0.30;99.90;;;;;;4979941;28;20050;-72
2023/02/26 07:41:16;;;;;;;5.32;1.20;;;0.40;99.90;;;;;;4993565;28;20069;-72
2023/02/26 07:43:42;;;;;;;4.32;1.10;;;0.40;99.90;;;;;;5024211;28;20045;-72
2023/02/26 07:46:08;;;;;;;4.20;0.80;;;0.40;99.90;;;;;;5014664;28;20046;-72
2023/02/26 07:48:33;;;;;;;5.00;1.33;;;0.50;99.90;;;;;;5024289;28;20045;-72
2023/02/26 07:50:59;;;;;;;3.10;0.80;;;0.50;99.90;;;;;;5001676;28;20049;-72
2023/02/26 07:53:25;;;;;;;7.75;1.30;;;0.40;99.90;;;;;;5001251;28;20041;-72
2023/02/26 07:55:51;;;;;;;2.83;0.90;;;0.50;99.90;;;;;;5001395;28;20102;-72
2023/02/26 07:58:17;;;;;;;4.75;1.02;;;0.50;99.90;;;;;;5009124;28;20135;-72
2023/02/26 08:00:43;;;;;;;4.68;1.20;;;0.60;99.90;;;;;;4982804;28;20131;-72
2023/02/26 08:03:09;;;;;;;6.00;1.23;;;0.60;99.90;;;;;;4985227;28;20419;-72
2023/02/26 08:05:34;;;;;;;3.78;0.80;;;0.70;99.90;;;;;;5008516;28;20851;-72
2023/02/26 08:08:00;;;;;;;3.80;1.05;;;0.70;99.90;;;;;;5016191;28;20041;-72
2023/02/26 08:10:26;;;;;;;4.18;1.23;;;0.70;99.90;;;;;;5024467;28;20057;-72
2023/02/26 08:12:52;;;;;;;4.35;0.88;;;0.80;99.90;;;;;;5006974;28;20056;-72
2023/02/26 08:15:18;;;;;;;6.38;1.00;;;0.80;99.90;;;;;;4995168;28;20045;-73
2023/02/26 08:17:44;;;;;;;3.72;0.65;;;0.90;99.90;;;;;;5017887;28;20055;-72
2023/02/26 08:20:10;;;;;;;4.50;0.70;;;0.90;99.90;;;;;;5019513;28;20041;-72
2023/02/26 08:22:36;;;;;;;7.32;0.93;;;0.90;99.90;;;;;;4986656;28;20129;-72
2023/02/26 08:25:03;;;;;;;2.08;0.68;;;1.00;99.90;;;;;;5000798;28;20046;-72
2023/02/26 08:27:28;;;;;;;3.83;0.88;;;1.00;99.90;;;;;;5010965;28;20159;-72
2023/02/26 08:29:54;;;;;;;6.47;1.40;;;1.10;99.90;;;;;;4989172;28;20041;-72
2023/02/26 08:32:21;;;;;;;3.85;1.10;;;1.10;99.90;;;;;;5000899;28;20093;-72
2023/02/26 08:34:47;;;;;;;2.90;0.95;;;1.10;99.90;;;;;;5025634;28;20496;-72
2023/02/26 08:37:13;;;;;;;5.72;1.80;;;1.10;99.90;;;;;;5020146;28;20171;-72
2023/02/26 08:39:39;;;;;;;2.95;1.20;;;1.10;99.90;;;;;;5006372;28;20052;-72
2023/02/26 08:42:05;;;;;;;2.65;0.82;;;1.20;99.90;;;;;;5024166;28;20052;-72
2023/02/26 08:44:31;;;;;;;4.82;0.90;;;1.20;99.90;;;;;;4986479;28;20045;-72
2023/02/26 08:46:57;;;;;;;2.13;0.90;;;1.20;99.90;;;;;;5005595;28;20065;-72
2023/02/26 08:49:23;;;;;;;3.63;1.00;;;1.30;99.90;;;;;;5012065;28;20046;-72
2023/02/26 08:51:49;;;;;;;4.80;0.95;;;1.30;99.90;;;;;;5025007;28;20556;-72
2023/02/26 08:54:14;;;;;;;4.10;0.98;;;1.40;99.90;;;;;;4995266;28;20701;-72
2023/02/26 08:56:40;;;;;;;3.63;1.13;;;1.40;99.90;;;;;;5000552;28;20049;-72
2023/02/26 08:59:06;;;;;;;3.70;0.80;;;1.40;99.90;;;;;;5029060;28;20060;-72
2023/02/26 09:01:32;;;;;;;5.55;0.90;;;1.50;99.90;;;;;;5016759;28;20042;-72
2023/02/26 09:03:57;;;;;;;2.42;0.80;;;1.60;99.90;;;;;;5000605;28;20200;-71
2023/02/26 09:06:23;;;;;;;1.60;0.98;;;1.60;99.90;;;;;;5011066;28;20045;-72
2023/02/26 09:08:49;;;;;;;3.80;0.85;;;1.60;99.90;;;;;;4993854;28;20045;-72
2023/02/26 09:11:15;;;;;;;4.75;1.10;;;1.50;99.90;;;;;;5004370;28;20390;-71
2023/02/26 09:13:42;;;;;;;2.83;0.70;;;1.60;99.90;;;;;;5008798;28;20521;-71
2023/02/26 09:16:08;;;;;;;5.35;1.38;;;1.60;99.90;;;;;;4998518;28;20150;-72
2023/02/26 09:18:34;;;;;;;7.88;1.00;;;1.70;99.90;;;;;;5008841;28;20466;-72
2023/02/26 09:21:00;;;;;;;4.65;2.03;;;1.80;99.90;;;;;;4988823;28;20098;-71
2023/02/26 09:23:26;;;;;;;4.05;1.10;;;1.90;99.90;;;;;;4999994;28;20053;-71
2023/02/26 09:25:56;;;;;;;5.82;0.80;;;1.90;99.90;;;;;;4985534;28;20042;-71
2023/02/26 09:28:22;;;;;;;3.95;1.27;;;1.90;99.90;;;;;;5024820;28;20045;-71
2023/02/26 09:30:51;;;;;;;2.85;0.90;;;1.90;99.90;;;;;;5026521;28;20060;-71
2023/02/26 09:33:18;;;;;;;3.40;0.77;;;1.80;99.90;;;;;;5029280;28;20069;-71
2023/02/26 09:35:43;;;;;;;3.17;1.60;;;2.00;99.90;;;;;;5001699;28;20112;-72
2023/02/26 09:38:09;;;;;;;2.80;1.00;;;2.10;99.90;;;;;;4999834;28;20684;-72
2023/02/26 09:40:55;;;;;;;3.70;1.00;;;2.30;99.90;;;;;;4994555;28;20129;-72
2023/02/26 09:43:45;;;;;;;2.35;0.80;;;2.30;99.90;;;;;;5014764;28;20050;-74
2023/02/26 09:46:27;;;;;;;2.45;1.08;;;2.50;99.90;;;;;;5031079;28;20099;-73
2023/02/26 09:49:20;;;;;;;3.50;0.80;;;2.60;99.90;;;;;;5027094;28;20049;-73
2023/02/26 09:51:50;;;;;;;2.05;0.80;;;2.70;99.90;;;;;;5020515;28;20054;-72
2023/02/26 09:54:24;;;;;;;2.92;0.95;;;2.80;99.90;;;;;;5030902;28;20107;-72
2023/02/26 09:56:51;;;;;;;4.00;0.77;;;2.90;99.90;;;;;;5033096;28;20069;-73
2023/02/26 09:59:17;;;;;;;2.23;0.70;;;3.00;99.90;;;;;;5009467;28;20046;-72
2023/02/26 10:02:03;;;;;;;2.50;0.80;;;3.10;99.90;;;;;;5044701;28;20135;-72
2023/02/26 10:04:36;;;;;;;2.42;0.75;;;3.30;99.90;;;;;;5004303;28;20179;-73
2023/02/26 10:07:07;;;;;;;3.90;0.90;;;3.40;99.90;;;;;;5006183;28;20132;-72
2023/02/26 10:09:54;;;;;;;2.22;0.85;;;3.50;99.90;;;;;;5020062;28;20501;-74
2023/02/26 10:12:25;;;;;;;2.03;0.87;;;3.60;99.80;;;;;;5021527;28;20136;-70
2023/02/26 10:15:09;;;;;;;4.90;1.15;;;3.40;99.60;;;;;;5020633;28;20054;-71
2023/02/26 10:17:50;;;;;;;3.30;1.55;;;3.40;99.90;;;;;;5005395;28;20049;-73
2023/02/26 10:20:38;;;;;;;6.20;0.80;;;3.70;99.60;;;;;;5006935;28;20037;-72
2023/02/26 10:23:11;;;;;;;1.83;0.70;;;4.10;99.90;;;;;;5023351;28;20038;-70
2023/02/26 10:25:40;;;;;;;3.95;1.10;;;4.20;97.40;;;;;;5005116;28;20552;-70
2023/02/26 10:28:18;;;;;;;4.53;0.95;;;3.80;95.70;;;;;;5033903;28;20045;-70
2023/02/26 10:30:50;;;;;;;4.53;0.70;;;3.70;95.40;;;;;;5006942;28;20478;-71
2023/02/26 10:33:33;;;;;;;3.35;1.00;;;3.90;94.70;;;;;;5047600;28;20049;-73
2023/02/26 10:36:04;;;;;;;5.38;0.80;;;3.80;94.10;;;;;;5021555;28;20049;-73
2023/02/26 10:38:30;;;;;;;5.22;1.02;;;3.70;93.80;;;;;;5027385;28;20131;-72
2023/02/26 10:41:03;;;;;;;4.38;0.90;;;3.70;92.30;;;;;;5019323;28;20463;-72
2023/02/26 10:43:39;;;;;;;1.73;0.70;;;3.60;93.50;;;;;;5025722;28;20045;-71
2023/02/26 10:46:36;;;;;;;3.25;0.85;;;3.60;91.80;;;;;;5020550;28;20038;-74
2023/02/26 10:49:21;;;;;;;3.25;1.10;;;4.00;99.90;;;;;;4988224;28;20045;-75
2023/02/26 10:51:46;;;;;;;3.88;1.13;;;4.60;99.90;;;;;;5032907;28;20045;-75
2023/02/26 10:54:34;;;;;;;4.03;1.10;;;5.20;99.90;;;;;;5004398;28;20060;-75
2023/02/26 10:57:00;;;;;;;3.35;0.80;;;5.60;97.50;;;;;;4997772;28;20140;-74
2023/02/26 10:59:27;;;;;;;3.17;1.15;;;5.90;95.00;;;;;;5011357;28;20152;-75
2023/02/26 11:01:52;;;;;;;7.85;1.00;;;6.20;92.30;;;;;;5030128;28;20091;-75
2023/02/26 11:04:22;;;;;;;3.75;1.08;;;5.90;92.00;;;;;;4990690;28;20533;-75
2023/02/26 11:06:50;;;;;;;1.90;0.85;;;6.30;87.80;;;;;;5010171;28;20107;-75
2023/02/26 11:09:26;;;;;;;;;;;6.40;90.20;;;;;;5021385;28;20045;-75
2023/02/26 11:12:05;;;;;;;6.38;1.10;;;7.10;87.80;;;;;;5028580;28;20004;-75
2023/02/26 11:14:32;;;;;;;3.97;0.90;;;7.60;80.40;;;;;;5016601;28;20121;-75
2023/02/26 11:17:01;;;;;;;1.90;0.90;;;9.50;75.30;;;;;;5014524;28;20081;-75
2023/02/26 11:19:32;;;;;;;4.00;1.27;;;11.50;62.30;;;;;;5032393;28;20838;-74
2023/02/26 11:21:58;;;;;;;3.40;0.75;;;13.20;52.50;;;;;;5032452;28;20042;-74
2023/02/26 11:24:51;;;;;;;3.65;0.80;;;15.00;46.30;;;;;;5024813;28;20188;-75
2023/02/26 11:27:21;;;;;;;2.00;0.73;;;16.90;43.00;;;;;;5031409;28;20060;-76
2023/02/26 11:29:48;;;;;;;4.22;1.02;;;17.00;41.40;;;;;;5024987;28;20041;-76
2023/02/26 11:32:44;;;;;;;2.88;0.85;;;17.50;40.40;;;;;;5007070;28;20132;-76
2023/02/26 11:35:14;;;;;;;2.97;1.13;;;16.40;38.10;;;;;;5020301;28;20045;-75
2023/02/26 11:37:44;;;;;;;4.88;1.10;;;13.00;45.20;;;;;;5008893;28;20064;-74
2023/02/26 11:40:17;;;;;;;5.05;1.45;;;10.10;50.50;;;;;;5024393;28;20068;-72
2023/02/26 11:42:55;;;;;;;4.03;1.10;;;8.40;49.50;;;;;;4991758;28;20124;-70
2023/02/26 11:45:23;;;;;;;1.55;0.80;;;6.20;53.70;;;;;;5021974;28;20049;-70
2023/02/26 11:48:01;;;;;;;1.83;0.90;;;7.90;47.70;;;;;;5015963;28;20049;-71
2023/02/26 11:50:27;;;;;;;1.47;0.60;;;11.30;42.30;;;;;;4995939;28;20041;-72
2023/02/26 11:53:02;;;;;;;2.50;0.85;;;13.70;38.50;;;;;;5004603;28;20371;-71
2023/02/26 11:55:36;;;;;;;2.88;0.70;;;14.10;38.50;;;;;;5025189;28;20486;-72
2023/02/26 11:58:03;;;;;;;2.88;0.88;;;14.50;39.10;;;;;;5024753;28;20053;-72
2023/02/26 12:00:35;;;;;;;3.45;0.90;;;13.60;40.00;;;;;;4995130;28;20053;-71
2023/02/26 12:03:09;;;;;;;2.35;0.90;;;12.30;41.20;;;;;;4993310;28;20136;-71
2023/02/26 12:05:35;;;;;;;1.73;0.80;;;10.40;42.70;;;;;;5048189;28;20419;-75
2023/02/26 12:08:02;;;;;;;2.67;1.20;;;9.30;46.50;;;;;;5013326;28;20041;-74
2023/02/26 12:10:42;;;;;;;4.72;1.50;;;8.70;46.20;;;;;;5020111;28;20046;-74
2023/02/26 12:13:20;;;;;;;4.10;1.25;;;10.70;44.60;;;;;;4997184;28;20100;-74
2023/02/26 12:16:27;;;;;;;2.23;0.83;;;10.00;44.60;;;;;;5031414;28;20037;-74
2023/02/26 12:19:00;;;;;;;2.55;0.73;;;9.30;46.10;;;;;;4989727;28;20129;-75
2023/02/26 12:21:30;;;;;;;2.22;0.85;;;10.90;46.10;;;;;;4992073;28;20037;-75
2023/02/26 12:23:59;;;;;;;2.53;1.08;;;11.30;41.60;;;;;;4991462;28;20077;-75
2023/02/26 12:26:27;;;;;;;;;;;11.80;44.00;;;;;;5007318;28;20053;-75
2023/02/26 12:28:59;;;;;;;2.33;0.57;;;11.70;42.00;;;;;;4999557;28;19917;-75
2023/02/26 12:31:35;;;;;;;6.10;0.90;;;9.70;44.80;;;;;;5030126;28;20188;-74
2023/02/26 12:34:19;;;;;;;2.38;0.85;;;9.80;44.60;;;;;;5014495;28;20050;-75
2023/02/26 12:37:05;;;;;;;2.28;0.82;;;11.80;45.70;;;;;;5016625;28;20056;-75
2023/02/26 12:40:00;;;;;;;2.40;0.90;;;11.90;40.90;;;;;;5021515;28;20069;-75
2023/02/26 12:42:54;;;;;;;2.15;0.90;;;10.70;42.40;;;;;;4995961;28;20043;-75
2023/02/26 12:45:23;;;;;;;4.03;1.08;;;10.60;42.90;;;;;;5009971;28;20049;-75
2023/02/26 12:48:24;;;;;;;2.13;1.00;;;11.80;40.50;;;;;;5001218;28;20087;-75
2023/02/26 12:51:15;;;;;;;2.65;0.60;;;10.50;42.40;;;;;;5030689;28;20045;-74
2023/02/26 12:53:58;;;;;;;1.75;0.63;;;11.00;42.20;;;;;;5017298;28;20072;-74
2023/02/26 12:56:41;;;;;;;4.13;0.85;;;10.70;40.70;;;;;;5027724;28;20059;-74
2023/02/26 12:59:28;;;;;;;3.30;0.82;;;11.50;41.30;;;;;;5017319;28;20085;-72
2023/02/26 13:02:04;;;;;;;4.35;1.33;;;12.80;39.10;;;;;;5024061;28;20073;-71
2023/02/26 13:04:48;;;;;;;6.00;2.95;;;12.90;38.20;;;;;;5014996;28;20041;-71
2023/02/26 13:07:38;;;;;;;3.22;1.50;;;14.40;36.80;;;;;;4998283;28;20046;-75
2023/02/26 13:10:33;;;;;;;3.58;1.27;;;14.80;37.10;;;;;;5016835;28;20045;-75
2023/02/26 13:13:09;;;;;;;1.58;0.70;;;15.90;34.60;;;;;;5013233;28;20054;-75
2023/02/26 13:16:06;;;;;;;1.38;0.70;;;15.10;34.40;;;;;;5010990;28;20075;-75
2023/02/26 13:18:53;;;;;;;1.88;0.77;;;15.10;34.90;;;;;;5021836;28;20061;-75